sensor_id;sensor_type;location;lat;lon;timestamp;pressure;altitude;pressure_sealevel;temperature;humidity
48267;BME280;34088;52.232;5.196;2024-03-23T01:04:08;101084.97;;;8.08;100.00
48267;BME280;34088;52.232;5.196;2024-03-23T01:06:34;101078.22;;;8.03;100.00
48267;BME280;34088;52.232;5.196;2024-03-23T01:08:59;101073.00;;;8.04;100.00
48267;BME280;34088;52.232;5.196;2024-03-23T01:11:24;101075.53;;;8.07;100.00
48267;BME280;34088;52.232;5.196;2024-03-23T01:13:49;101073.06;;;8.01;100.00
48267;BME280;34088;52.232;5.196;2024-03-23T01:16:15;101069.63;;;8.01;100.00
48267;BME280;34088;52.232;5.196;2024-03-23T01:18:40;101055.31;;;7.88;100.00
48267;BME280;34088;52.232;5.196;2024-03-23T01:21:05;101058.63;;;7.94;100.00
48267;BME280;34088;52.232;5.196;2024-03-23T01:23:30;101057.91;;;7.86;100.00
48267;BME280;34088;52.232;5.196;2024-03-23T01:25:56;101043.38;;;7.82;100.00
48267;BME280;34088;52.232;5.196;2024-03-23T01:28:21;101059.53;;;7.92;100.00
48267;BME280;34088;52.232;5.196;2024-03-23T01:30:47;101059.56;;;7.90;100.00
48267;BME280;34088;52.232;5.196;2024-03-23T01:33:12;101051.00;;;7.88;100.00
48267;BME280;34088;52.232;5.196;2024-03-23T01:35:38;101049.38;;;7.83;100.00
48267;BME280;34088;52.232;5.196;2024-03-23T01:38:03;101043.44;;;7.81;100.00
48267;BME280;34088;52.232;5.196;2024-03-23T01:40:29;101032.28;;;7.79;100.00
48267;BME280;34088;52.232;5.196;2024-03-23T01:43:07;101036.53;;;7.81;100.00
48267;BME280;34088;52.232;5.196;2024-03-23T01:45:33;101037.50;;;7.76;100.00
48267;BME280;34088;52.232;5.196;2024-03-23T01:47:59;101025.56;;;7.72;100.00
48267;BME280;34088;52.232;5.196;2024-03-23T01:50:24;101013.84;;;7.57;100.00
48267;BME280;34088;52.232;5.196;2024-03-23T01:52:50;101034.31;;;7.63;100.00
48267;BME280;34088;52.232;5.196;2024-03-23T01:55:16;101030.91;;;7.63;100.00
48267;BME280;34088;52.232;5.196;2024-03-23T01:57:41;101031.69;;;7.68;100.00
48267;BME280;34088;52.232;5.196;2024-03-23T02:00:07;101033.44;;;7.64;100.00
48267;BME280;34088;52.232;5.196;2024-03-23T02:02:34;101030.81;;;7.67;100.00
48267;BME280;34088;52.232;5.196;2024-03-23T02:05:00;101026.66;;;7.60;100.00
48267;BME280;34088;52.232;5.196;2024-03-23T02:07:25;101029.25;;;7.60;100.00
48267;BME280;34088;52.232;5.196;2024-03-23T02:09:51;101024.16;;;7.56;100.00
48267;BME280;34088;52.232;5.196;2024-03-23T02:12:17;101002.22;;;7.37;100.00
48267;BME280;34088;52.232;5.196;2024-03-23T02:14:42;101028.56;;;7.51;100.00
48267;BME280;34088;52.232;5.196;2024-03-23T02:17:08;101025.09;;;7.53;100.00
48267;BME280;34088;52.232;5.196;2024-03-23T02:19:34;101021.94;;;7.38;100.00
48267;BME280;34088;52.232;5.196;2024-03-23T02:21:59;101022.69;;;7.44;100.00
48267;BME280;34088;52.232;5.196;2024-03-23T02:24:24;101019.28;;;7.42;100.00
48267;BME280;34088;52.232;5.196;2024-03-23T02:26:50;101017.66;;;7.37;100.00
48267;BME280;34088;52.232;5.196;2024-03-23T02:29:15;101015.94;;;7.37;100.00
48267;BME280;34088;52.232;5.196;2024-03-23T02:31:40;101020.34;;;7.32;100.00
48267;BME280;34088;52.232;5.196;2024-03-23T02:34:06;101010.03;;;7.32;100.00
48267;BME280;34088;52.232;5.196;2024-03-23T02:36:31;101005.81;;;7.28;100.00
48267;BME280;34088;52.232;5.196;2024-03-23T02:38:56;100993.72;;;7.32;100.00
48267;BME280;34088;52.232;5.196;2024-03-23T02:41:22;101002.34;;;7.29;100.00
48267;BME280;34088;52.232;5.196;2024-03-23T02:43:51;100988.81;;;7.20;100.00
48267;BME280;34088;52.232;5.196;2024-03-23T02:46:16;100996.53;;;7.20;100.00
48267;BME280;34088;52.232;5.196;2024-03-23T02:48:42;100992.25;;;7.19;100.00
48267;BME280;34088;52.232;5.196;2024-03-23T02:51:07;101002.63;;;7.16;100.00
48267;BME280;34088;52.232;5.196;2024-03-23T02:53:32;100997.44;;;7.17;100.00
48267;BME280;34088;52.232;5.196;2024-03-23T02:55:58;100998.38;;;7.13;100.00
48267;BME280;34088;52.232;5.196;2024-03-23T02:58:23;100968.72;;;6.93;100.00
48267;BME280;34088;52.232;5.196;2024-03-23T03:00:49;100983.19;;;6.98;100.00
48267;BME280;34088;52.232;5.196;2024-03-23T03:03:14;100999.31;;;7.09;100.00
48267;BME280;34088;52.232;5.196;2024-03-23T03:05:39;101001.88;;;7.09;100.00
48267;BME280;34088;52.232;5.196;2024-03-23T03:08:05;100997.69;;;7.04;100.00
48267;BME280;34088;52.232;5.196;2024-03-23T03:10:30;100990.88;;;7.01;100.00
48267;BME280;34088;52.232;5.196;2024-03-23T03:12:57;100989.22;;;6.99;100.00
48267;BME280;34088;52.232;5.196;2024-03-23T03:15:22;100992.69;;;6.95;100.00
48267;BME280;34088;52.232;5.196;2024-03-23T03:17:48;100989.31;;;6.93;100.00
48267;BME280;34088;52.232;5.196;2024-03-23T03:20:13;100981.53;;;6.94;100.00
48267;BME280;34088;52.232;5.196;2024-03-23T03:22:40;100979.06;;;6.90;100.00
48267;BME280;34088;52.232;5.196;2024-03-23T03:25:05;100982.50;;;6.90;100.00
48267;BME280;34088;52.232;5.196;2024-03-23T03:27:32;100983.44;;;6.85;100.00
48267;BME280;34088;52.232;5.196;2024-03-23T03:29:57;100982.66;;;6.80;100.00
48267;BME280;34088;52.232;5.196;2024-03-23T03:32:23;100984.38;;;6.81;100.00
48267;BME280;34088;52.232;5.196;2024-03-23T03:34:48;100980.25;;;6.71;100.00
48267;BME280;34088;52.232;5.196;2024-03-23T03:37:15;100981.91;;;6.75;100.00
48267;BME280;34088;52.232;5.196;2024-03-23T03:39:40;100977.69;;;6.71;100.00
48267;BME280;34088;52.232;5.196;2024-03-23T03:42:05;100983.72;;;6.70;100.00
48267;BME280;34088;52.232;5.196;2024-03-23T03:44:32;100974.34;;;6.66;100.00
48267;BME280;34088;52.232;5.196;2024-03-23T03:46:57;100969.13;;;6.69;100.00
48267;BME280;34088;52.232;5.196;2024-03-23T03:49:22;100955.63;;;6.58;100.00
48267;BME280;34088;52.232;5.196;2024-03-23T03:51:48;100973.44;;;6.68;100.00
48267;BME280;34088;52.232;5.196;2024-03-23T03:54:13;100956.34;;;6.63;100.00
48267;BME280;34088;52.232;5.196;2024-03-23T03:56:38;100964.16;;;6.60;100.00
48267;BME280;34088;52.232;5.196;2024-03-23T03:59:03;100948.78;;;6.55;100.00
48267;BME280;34088;52.232;5.196;2024-03-23T04:01:29;100966.66;;;6.63;100.00
48267;BME280;34088;52.232;5.196;2024-03-23T04:03:54;100966.53;;;6.69;100.00
48267;BME280;34088;52.232;5.196;2024-03-23T04:06:20;100979.28;;;6.78;99.90
48267;BME280;34088;52.232;5.196;2024-03-23T04:08:45;100961.56;;;6.60;100.00
48267;BME280;34088;52.232;5.196;2024-03-23T04:11:11;100971.16;;;6.50;100.00
48267;BME280;34088;52.232;5.196;2024-03-23T04:13:36;100963.47;;;6.49;100.00
48267;BME280;34088;52.232;5.196;2024-03-23T04:16:01;100956.75;;;6.40;100.00
48267;BME280;34088;52.232;5.196;2024-03-23T04:18:27;100952.41;;;6.42;100.00
48267;BME280;34088;52.232;5.196;2024-03-23T04:20:52;100952.38;;;6.47;100.00
48267;BME280;34088;52.232;5.196;2024-03-23T04:23:17;100946.38;;;6.45;100.00
48267;BME280;34088;52.232;5.196;2024-03-23T04:25:43;100953.28;;;6.43;100.00
48267;BME280;34088;52.232;5.196;2024-03-23T04:28:08;100955.00;;;6.42;100.00
48267;BME280;34088;52.232;5.196;2024-03-23T04:30:34;100949.22;;;6.30;100.00
48267;BME280;34088;52.232;5.196;2024-03-23T04:32:59;100960.38;;;6.27;100.00
48267;BME280;34088;52.232;5.196;2024-03-23T04:35:26;100960.56;;;6.15;100.00
48267;BME280;34088;52.232;5.196;2024-03-23T04:37:51;100945.25;;;6.08;100.00
48267;BME280;34088;52.232;5.196;2024-03-23T04:40:20;100955.50;;;6.11;100.00
48267;BME280;34088;52.232;5.196;2024-03-23T04:42:46;100945.34;;;6.02;100.00
48267;BME280;34088;52.232;5.196;2024-03-23T04:45:11;100952.09;;;6.09;100.00
48267;BME280;34088;52.232;5.196;2024-03-23T04:47:37;100964.06;;;6.11;100.00
48267;BME280;34088;52.232;5.196;2024-03-23T04:50:04;100952.06;;;6.12;100.00
48267;BME280;34088;52.232;5.196;2024-03-23T04:52:29;100963.31;;;6.03;100.00
48267;BME280;34088;52.232;5.196;2024-03-23T04:54:55;100939.44;;;5.95;100.00
48267;BME280;34088;52.232;5.196;2024-03-23T04:57:20;100947.13;;;5.98;100.00
48267;BME280;34088;52.232;5.196;2024-03-23T04:59:46;100945.41;;;5.97;100.00
48267;BME280;34088;52.232;5.196;2024-03-23T05:02:12;100936.16;;;5.84;100.00
48267;BME280;34088;52.232;5.196;2024-03-23T05:04:37;100945.53;;;5.88;100.00
48267;BME280;34088;52.232;5.196;2024-03-23T05:07:03;100939.50;;;5.91;100.00
48267;BME280;34088;52.232;5.196;2024-03-23T05:09:29;100945.53;;;5.90;100.00
48267;BME280;34088;52.232;5.196;2024-03-23T05:11:55;100941.41;;;5.77;100.00
48267;BME280;34088;52.232;5.196;2024-03-23T05:14:21;100943.09;;;5.78;100.00
48267;BME280;34088;52.232;5.196;2024-03-23T05:16:46;100941.31;;;5.84;100.00
48267;BME280;34088;52.232;5.196;2024-03-23T05:19:12;100939.66;;;5.82;100.00
48267;BME280;34088;52.232;5.196;2024-03-23T05:21:37;100946.47;;;5.83;100.00
48267;BME280;34088;52.232;5.196;2024-03-23T05:24:02;100952.44;;;5.86;100.00
48267;BME280;34088;52.232;5.196;2024-03-23T05:26:28;100949.75;;;5.94;100.00
48267;BME280;34088;52.232;5.196;2024-03-23T05:28:54;100940.31;;;5.94;100.00
48267;BME280;34088;52.232;5.196;2024-03-23T05:31:23;100944.56;;;5.97;100.00
48267;BME280;34088;52.232;5.196;2024-03-23T05:33:49;100953.06;;;6.02;100.00
48267;BME280;34088;52.232;5.196;2024-03-23T05:36:14;100946.31;;;5.95;100.00
48267;BME280;34088;52.232;5.196;2024-03-23T05:38:39;100938.50;;;6.01;100.00
48267;BME280;34088;52.232;5.196;2024-03-23T05:41:05;100941.81;;;6.09;100.00
48267;BME280;34088;52.232;5.196;2024-03-23T05:43:30;100944.34;;;6.12;100.00
48267;BME280;34088;52.232;5.196;2024-03-23T05:45:56;100937.56;;;6.08;100.00
48267;BME280;34088;52.232;5.196;2024-03-23T05:48:22;100947.78;;;6.11;100.00
48267;BME280;34088;52.232;5.196;2024-03-23T05:50:48;100938.50;;;6.02;100.00
48267;BME280;34088;52.232;5.196;2024-03-23T05:53:15;100935.84;;;6.08;100.00
48267;BME280;34088;52.232;5.196;2024-03-23T05:55:40;100937.56;;;6.05;100.00
48267;BME280;34088;52.232;5.196;2024-03-23T05:58:06;100925.59;;;6.04;100.00
48267;BME280;34088;52.232;5.196;2024-03-23T06:00:31;100933.31;;;6.04;100.00
48267;BME280;34088;52.232;5.196;2024-03-23T06:02:56;100925.50;;;6.10;100.00
48267;BME280;34088;52.232;5.196;2024-03-23T06:05:22;100944.19;;;6.21;100.00
48267;BME280;34088;52.232;5.196;2024-03-23T06:07:48;100926.38;;;6.10;100.00
48267;BME280;34088;52.232;5.196;2024-03-23T06:10:14;100944.28;;;6.15;100.00
48267;BME280;34088;52.232;5.196;2024-03-23T06:12:40;100937.53;;;6.11;100.00
48267;BME280;34088;52.232;5.196;2024-03-23T06:15:06;100935.69;;;6.17;100.00
48267;BME280;34088;52.232;5.196;2024-03-23T06:17:35;100949.44;;;6.15;100.00
48267;BME280;34088;52.232;5.196;2024-03-23T06:20:01;100936.56;;;6.18;100.00
48267;BME280;34088;52.232;5.196;2024-03-23T06:22:26;100927.25;;;6.11;100.00
48267;BME280;34088;52.232;5.196;2024-03-23T06:24:51;100928.75;;;6.24;100.00
48267;BME280;34088;52.232;5.196;2024-03-23T06:27:17;100922.81;;;6.19;100.00
48267;BME280;34088;52.232;5.196;2024-03-23T06:29:42;100926.81;;;6.36;100.00
48267;BME280;34088;52.232;5.196;2024-03-23T06:32:07;100931.16;;;6.33;100.00
48267;BME280;34088;52.232;5.196;2024-03-23T06:34:32;100921.72;;;6.35;100.00
48267;BME280;34088;52.232;5.196;2024-03-23T06:36:58;100919.97;;;6.37;100.00
48267;BME280;34088;52.232;5.196;2024-03-23T06:39:23;100918.16;;;6.42;100.00
48267;BME280;34088;52.232;5.196;2024-03-23T06:41:53;100917.16;;;6.52;99.93
48267;BME280;34088;52.232;5.196;2024-03-23T06:44:19;100927.44;;;6.52;99.19
48267;BME280;34088;52.232;5.196;2024-03-23T06:46:44;100923.94;;;6.54;99.28
48267;BME280;34088;52.232;5.196;2024-03-23T06:49:10;100922.91;;;6.63;98.68
48267;BME280;34088;52.232;5.196;2024-03-23T06:51:35;100923.69;;;6.68;98.64
48267;BME280;34088;52.232;5.196;2024-03-23T06:54:02;100919.44;;;6.67;98.45
48267;BME280;34088;52.232;5.196;2024-03-23T06:56:28;100929.63;;;6.73;98.58
48267;BME280;34088;52.232;5.196;2024-03-23T06:58:54;100922.19;;;7.03;97.24
48267;BME280;34088;52.232;5.196;2024-03-23T07:01:19;100910.25;;;7.42;95.35
48267;BME280;34088;52.232;5.196;2024-03-23T07:03:44;100918.13;;;7.75;94.13
48267;BME280;34088;52.232;5.196;2024-03-23T07:06:10;100922.25;;;8.22;92.55
48267;BME280;34088;52.232;5.196;2024-03-23T07:08:35;100905.75;;;8.27;92.10
48267;BME280;34088;52.232;5.196;2024-03-23T07:11:01;100924.03;;;8.17;92.17
48267;BME280;34088;52.232;5.196;2024-03-23T07:13:27;100900.63;;;8.26;92.90
48267;BME280;34088;52.232;5.196;2024-03-23T07:15:53;100916.75;;;8.35;91.36
48267;BME280;34088;52.232;5.196;2024-03-23T07:18:20;100929.50;;;8.41;90.63
48267;BME280;34088;52.232;5.196;2024-03-23T07:20:55;100926.16;;;8.38;90.93
48267;BME280;34088;52.232;5.196;2024-03-23T07:23:22;100923.59;;;8.71;90.18
48267;BME280;34088;52.232;5.196;2024-03-23T07:25:55;100925.47;;;8.65;87.63
48267;BME280;34088;52.232;5.196;2024-03-23T07:28:21;100923.56;;;9.03;87.64
48267;BME280;34088;52.232;5.196;2024-03-23T07:30:46;100918.75;;;8.90;87.57
48267;BME280;34088;52.232;5.196;2024-03-23T07:33:12;100931.94;;;8.81;89.66
48267;BME280;34088;52.232;5.196;2024-03-23T07:35:37;100930.38;;;8.40;89.63
48267;BME280;34088;52.232;5.196;2024-03-23T07:38:03;100932.94;;;8.40;88.07
48267;BME280;34088;52.232;5.196;2024-03-23T07:40:30;100949.84;;;8.15;89.82
48267;BME280;34088;52.232;5.196;2024-03-23T07:42:55;100937.25;;;8.03;88.56
48267;BME280;34088;52.232;5.196;2024-03-23T07:45:21;100937.22;;;8.05;89.27
48267;BME280;34088;52.232;5.196;2024-03-23T07:47:46;100928.28;;;7.81;89.40
48267;BME280;34088;52.232;5.196;2024-03-23T07:50:11;100932.16;;;8.72;88.02
48267;BME280;34088;52.232;5.196;2024-03-23T07:52:37;100913.31;;;9.02;86.90
48267;BME280;34088;52.232;5.196;2024-03-23T07:55:02;100914.56;;;8.54;84.83
48267;BME280;34088;52.232;5.196;2024-03-23T07:57:28;100919.44;;;8.31;87.02
48267;BME280;34088;52.232;5.196;2024-03-23T07:59:53;100918.78;;;8.23;87.18
48267;BME280;34088;52.232;5.196;2024-03-23T08:02:18;100919.69;;;8.19;85.99
48267;BME280;34088;52.232;5.196;2024-03-23T08:04:44;100924.13;;;8.49;85.77
48267;BME280;34088;52.232;5.196;2024-03-23T08:07:09;100921.47;;;8.85;81.70
48267;BME280;34088;52.232;5.196;2024-03-23T08:09:34;100919.38;;;8.67;83.40
48267;BME280;34088;52.232;5.196;2024-03-23T08:11:59;100924.41;;;8.72;83.23
48267;BME280;34088;52.232;5.196;2024-03-23T08:14:24;100925.56;;;8.27;83.74
48267;BME280;34088;52.232;5.196;2024-03-23T08:16:50;100928.41;;;8.15;83.86
48267;BME280;34088;52.232;5.196;2024-03-23T08:19:16;100926.63;;;8.17;83.17
48267;BME280;34088;52.232;5.196;2024-03-23T08:21:41;100922.66;;;8.02;83.03
48267;BME280;34088;52.232;5.196;2024-03-23T08:24:07;100906.56;;;7.93;82.77
48267;BME280;34088;52.232;5.196;2024-03-23T08:26:32;100925.88;;;8.12;83.98
48267;BME280;34088;52.232;5.196;2024-03-23T08:28:58;100917.19;;;8.17;83.97
48267;BME280;34088;52.232;5.196;2024-03-23T08:31:23;100921.38;;;8.21;82.34
48267;BME280;34088;52.232;5.196;2024-03-23T08:33:48;100913.34;;;8.33;82.37
48267;BME280;34088;52.232;5.196;2024-03-23T08:36:13;100912.91;;;8.51;82.61
48267;BME280;34088;52.232;5.196;2024-03-23T08:38:39;100919.63;;;9.22;79.43
48267;BME280;34088;52.232;5.196;2024-03-23T08:41:09;100929.63;;;9.34;76.88
48267;BME280;34088;52.232;5.196;2024-03-23T08:43:36;100923.78;;;9.26;77.40
48267;BME280;34088;52.232;5.196;2024-03-23T08:46:13;100906.94;;;9.73;75.32
48267;BME280;34088;52.232;5.196;2024-03-23T08:48:40;100915.31;;;10.08;75.04
48267;BME280;34088;52.232;5.196;2024-03-23T08:51:07;100906.63;;;9.81;72.32
48267;BME280;34088;52.232;5.196;2024-03-23T08:53:34;100898.63;;;9.90;73.84
48267;BME280;34088;52.232;5.196;2024-03-23T08:56:00;100910.94;;;9.53;73.64
48267;BME280;34088;52.232;5.196;2024-03-23T08:58:29;100912.31;;;9.06;74.82
48267;BME280;34088;52.232;5.196;2024-03-23T09:00:56;100915.56;;;9.14;76.51
48267;BME280;34088;52.232;5.196;2024-03-23T09:03:25;100914.66;;;9.45;76.48
48267;BME280;34088;52.232;5.196;2024-03-23T09:05:51;100929.44;;;9.69;77.71
48267;BME280;34088;52.232;5.196;2024-03-23T09:08:16;100909.56;;;9.12;74.69
48267;BME280;34088;52.232;5.196;2024-03-23T09:10:42;100918.78;;;9.79;72.24
48267;BME280;34088;52.232;5.196;2024-03-23T09:13:08;100918.41;;;9.91;71.71
48267;BME280;34088;52.232;5.196;2024-03-23T09:15:34;100916.78;;;9.87;73.25
48267;BME280;34088;52.232;5.196;2024-03-23T09:17:59;100902.63;;;10.00;74.10
48267;BME280;34088;52.232;5.196;2024-03-23T09:20:25;100901.28;;;9.87;74.55
48267;BME280;34088;52.232;5.196;2024-03-23T09:22:50;100905.25;;;9.99;75.35
48267;BME280;34088;52.232;5.196;2024-03-23T09:25:15;100909.44;;;9.74;77.92
48267;BME280;34088;52.232;5.196;2024-03-23T09:27:40;100922.47;;;9.12;78.80
48267;BME280;34088;52.232;5.196;2024-03-23T09:30:06;100915.31;;;8.91;80.10
48267;BME280;34088;52.232;5.196;2024-03-23T09:32:31;100903.63;;;9.39;77.48
48267;BME280;34088;52.232;5.196;2024-03-23T09:34:57;100904.22;;;9.48;74.87
48267;BME280;34088;52.232;5.196;2024-03-23T09:37:22;100905.69;;;9.57;75.91
48267;BME280;34088;52.232;5.196;2024-03-23T09:39:47;100903.59;;;9.96;75.43
48267;BME280;34088;52.232;5.196;2024-03-23T09:42:13;100892.78;;;10.63;76.42
48267;BME280;34088;52.232;5.196;2024-03-23T09:44:39;100886.03;;;10.07;74.00
48267;BME280;34088;52.232;5.196;2024-03-23T09:47:04;100916.53;;;9.69;76.61
48267;BME280;34088;52.232;5.196;2024-03-23T09:49:30;100901.75;;;9.15;78.18
48267;BME280;34088;52.232;5.196;2024-03-23T09:51:56;100891.38;;;8.86;81.11
48267;BME280;34088;52.232;5.196;2024-03-23T09:54:22;100899.72;;;9.26;80.23
48267;BME280;34088;52.232;5.196;2024-03-23T09:56:47;100892.69;;;9.31;78.46
48267;BME280;34088;52.232;5.196;2024-03-23T09:59:12;100897.41;;;9.46;77.90
48267;BME280;34088;52.232;5.196;2024-03-23T10:01:37;100899.75;;;9.53;75.80
48267;BME280;34088;52.232;5.196;2024-03-23T10:04:03;100903.16;;;9.82;76.86
48267;BME280;34088;52.232;5.196;2024-03-23T10:06:28;100911.34;;;9.69;76.21
48267;BME280;34088;52.232;5.196;2024-03-23T10:08:53;100917.28;;;9.44;75.90
48267;BME280;34088;52.232;5.196;2024-03-23T10:11:20;100905.00;;;9.50;76.49
48267;BME280;34088;52.232;5.196;2024-03-23T10:13:46;100913.34;;;9.31;75.51
48267;BME280;34088;52.232;5.196;2024-03-23T10:16:12;100908.66;;;9.13;75.42
48267;BME280;34088;52.232;5.196;2024-03-23T10:18:45;100906.38;;;9.02;76.73
48267;BME280;34088;52.232;5.196;2024-03-23T10:21:11;100904.28;;;8.86;73.25
48267;BME280;34088;52.232;5.196;2024-03-23T10:23:37;100910.03;;;8.95;74.69
48267;BME280;34088;52.232;5.196;2024-03-23T10:26:19;100911.19;;;8.84;74.50
48267;BME280;34088;52.232;5.196;2024-03-23T10:28:59;100907.31;;;9.00;74.93
48267;BME280;34088;52.232;5.196;2024-03-23T10:31:43;100898.34;;;9.13;74.91
48267;BME280;34088;52.232;5.196;2024-03-23T10:34:08;100896.00;;;9.05;73.63
48267;BME280;34088;52.232;5.196;2024-03-23T10:36:33;100903.84;;;9.01;74.11
48267;BME280;34088;52.232;5.196;2024-03-23T10:38:59;100896.16;;;8.99;73.48
48267;BME280;34088;52.232;5.196;2024-03-23T10:41:28;100895.78;;;9.42;74.06
48267;BME280;34088;52.232;5.196;2024-03-23T10:43:55;100888.88;;;9.71;71.50
48267;BME280;34088;52.232;5.196;2024-03-23T10:46:22;100891.84;;;9.59;71.18
48267;BME280;34088;52.232;5.196;2024-03-23T10:48:48;100891.13;;;9.81;71.85
48267;BME280;34088;52.232;5.196;2024-03-23T10:51:14;100886.59;;;9.89;70.48
48267;BME280;34088;52.232;5.196;2024-03-23T10:53:39;100883.63;;;10.01;69.44
48267;BME280;34088;52.232;5.196;2024-03-23T10:56:05;100875.25;;;10.21;69.81
48267;BME280;34088;52.232;5.196;2024-03-23T10:58:38;100881.84;;;10.03;68.36
48267;BME280;34088;52.232;5.196;2024-03-23T11:01:03;100878.25;;;10.09;69.33
48267;BME280;34088;52.232;5.196;2024-03-23T11:03:36;100886.69;;;10.40;68.39
48267;BME280;34088;52.232;5.196;2024-03-23T11:06:03;100861.13;;;9.77;68.53
48267;BME280;34088;52.232;5.196;2024-03-23T11:08:34;100889.59;;;9.76;70.70
48267;BME280;34088;52.232;5.196;2024-03-23T11:13:38;100888.63;;;9.22;69.63
48267;BME280;34088;52.232;5.196;2024-03-23T11:16:16;100888.81;;;9.45;69.84
48267;BME280;34088;52.232;5.196;2024-03-23T11:18:42;100891.03;;;9.57;69.81
48267;BME280;34088;52.232;5.196;2024-03-23T11:21:09;100893.19;;;9.70;68.80
48267;BME280;34088;52.232;5.196;2024-03-23T11:23:34;100888.94;;;9.68;70.06
48267;BME280;34088;52.232;5.196;2024-03-23T11:25:59;100885.88;;;9.57;69.24
48267;BME280;34088;52.232;5.196;2024-03-23T11:28:25;100890.19;;;9.57;70.61
48267;BME280;34088;52.232;5.196;2024-03-23T11:30:50;100888.03;;;9.70;69.78
48267;BME280;34088;52.232;5.196;2024-03-23T11:33:15;100889.78;;;9.41;69.50
48267;BME280;34088;52.232;5.196;2024-03-23T11:35:41;100892.69;;;9.31;68.82
48267;BME280;34088;52.232;5.196;2024-03-23T11:38:10;100879.59;;;9.37;68.02
48267;BME280;34088;52.232;5.196;2024-03-23T11:40:37;100876.91;;;9.40;68.93
48267;BME280;34088;52.232;5.196;2024-03-23T11:43:08;100874.84;;;9.51;68.95
48267;BME280;34088;52.232;5.196;2024-03-23T11:45:53;100879.66;;;9.63;68.63
48267;BME280;34088;52.232;5.196;2024-03-23T11:48:21;100869.72;;;9.76;67.60
48267;BME280;34088;52.232;5.196;2024-03-23T11:50:53;100879.97;;;9.81;65.68
48267;BME280;34088;52.232;5.196;2024-03-23T11:53:22;100873.97;;;9.79;65.85
48267;BME280;34088;52.232;5.196;2024-03-23T11:55:56;100879.56;;;9.93;65.70
48267;BME280;34088;52.232;5.196;2024-03-23T11:58:22;100879.84;;;9.84;65.56
48267;BME280;34088;52.232;5.196;2024-03-23T12:03:18;100874.25;;;9.70;66.66
48267;BME280;34088;52.232;5.196;2024-03-23T12:05:50;100871.31;;;9.55;66.24
48267;BME280;34088;52.232;5.196;2024-03-23T12:11:04;100877.97;;;9.62;63.29
48267;BME280;34088;52.232;5.196;2024-03-23T12:13:30;100865.56;;;9.45;64.72
48267;BME280;34088;52.232;5.196;2024-03-23T12:16:16;100869.09;;;9.70;65.74
48267;BME280;34088;52.232;5.196;2024-03-23T12:18:43;100868.34;;;9.67;66.82
48267;BME280;34088;52.232;5.196;2024-03-23T12:21:09;100859.91;;;9.33;67.03
48267;BME280;34088;52.232;5.196;2024-03-23T12:23:35;100846.69;;;9.42;67.54
48267;BME280;34088;52.232;5.196;2024-03-23T12:26:02;100864.75;;;9.70;67.64
48267;BME280;34088;52.232;5.196;2024-03-23T12:28:28;100850.38;;;9.62;66.55
48267;BME280;34088;52.232;5.196;2024-03-23T12:30:53;100848.16;;;9.50;66.02
48267;BME280;34088;52.232;5.196;2024-03-23T12:33:19;100842.25;;;9.74;65.84
48267;BME280;34088;52.232;5.196;2024-03-23T12:35:44;100833.56;;;10.02;64.51
48267;BME280;34088;52.232;5.196;2024-03-23T12:38:10;100827.19;;;10.14;63.02
48267;BME280;34088;52.232;5.196;2024-03-23T12:40:35;100833.66;;;9.99;62.43
48267;BME280;34088;52.232;5.196;2024-03-23T12:43:01;100829.22;;;10.03;61.49
48267;BME280;34088;52.232;5.196;2024-03-23T12:45:26;100836.09;;;10.05;61.82
48267;BME280;34088;52.232;5.196;2024-03-23T12:47:51;100834.13;;;10.13;61.56
48267;BME280;34088;52.232;5.196;2024-03-23T12:50:20;100829.84;;;10.37;62.02
48267;BME280;34088;52.232;5.196;2024-03-23T12:52:45;100821.81;;;10.20;62.11
48267;BME280;34088;52.232;5.196;2024-03-23T12:55:11;100825.69;;;10.07;61.00
48267;BME280;34088;52.232;5.196;2024-03-23T12:57:36;100849.19;;;10.27;62.36
48267;BME280;34088;52.232;5.196;2024-03-23T13:00:02;100816.59;;;10.21;61.53
48267;BME280;34088;52.232;5.196;2024-03-23T13:02:29;100831.53;;;10.38;60.88
48267;BME280;34088;52.232;5.196;2024-03-23T13:04:54;100834.31;;;10.07;61.00
48267;BME280;34088;52.232;5.196;2024-03-23T13:07:20;100826.56;;;10.07;59.45
48267;BME280;34088;52.232;5.196;2024-03-23T13:09:47;100818.97;;;10.27;60.33
48267;BME280;34088;52.232;5.196;2024-03-23T13:12:12;100816.28;;;10.30;60.08
48267;BME280;34088;52.232;5.196;2024-03-23T13:14:38;100824.59;;;9.86;60.23
48267;BME280;34088;52.232;5.196;2024-03-23T13:17:04;100836.13;;;9.76;61.62
48267;BME280;34088;52.232;5.196;2024-03-23T13:19:30;100831.72;;;9.80;61.52
48267;BME280;34088;52.232;5.196;2024-03-23T13:21:59;100832.56;;;9.80;61.45
48267;BME280;34088;52.232;5.196;2024-03-23T13:24:25;100828.38;;;9.76;61.43
48267;BME280;34088;52.232;5.196;2024-03-23T13:26:52;100828.34;;;9.51;63.22
48267;BME280;34088;52.232;5.196;2024-03-23T13:29:18;100836.81;;;9.56;63.30
48267;BME280;34088;52.232;5.196;2024-03-23T13:31:44;100837.53;;;9.61;63.94
48267;BME280;34088;52.232;5.196;2024-03-23T13:34:09;100831.91;;;9.47;65.51
48267;BME280;34088;52.232;5.196;2024-03-23T13:36:34;100828.97;;;9.30;65.80
48267;BME280;34088;52.232;5.196;2024-03-23T13:39:01;100825.56;;;9.29;66.58
48267;BME280;34088;52.232;5.196;2024-03-23T13:41:30;100822.28;;;9.23;67.58
48267;BME280;34088;52.232;5.196;2024-03-23T13:43:55;100810.88;;;9.01;64.65
48267;BME280;34088;52.232;5.196;2024-03-23T13:46:20;100804.22;;;8.94;63.44
48267;BME280;34088;52.232;5.196;2024-03-23T13:48:46;100820.78;;;9.16;63.72
48267;BME280;34088;52.232;5.196;2024-03-23T13:51:11;100801.28;;;9.35;64.37
48267;BME280;34088;52.232;5.196;2024-03-23T13:53:38;100802.31;;;9.57;63.94
48267;BME280;34088;52.232;5.196;2024-03-23T13:56:03;100800.13;;;9.70;64.54
48267;BME280;34088;52.232;5.196;2024-03-23T13:58:29;100801.03;;;9.69;62.82
48267;BME280;34088;52.232;5.196;2024-03-23T14:00:56;100811.19;;;9.48;62.93